Time;durP1;ratioP1;P1;durP2;ratioP2;P2;SDS_P1;SDS_P2;PMS_P1;PMS_P2;Temp;Humidity;BMP_temperature;BMP_pressure;BME280_temperature;BME280_humidity;BME280_pressure;Samples;Min_cycle;Max_cycle;Signal;HPM_P1;HPM_P2
2024/01/29 00:01:48;;;;;;;;;70.00;52.25;;;;;6.90;81.79;102242.44;4994032;28;45330;-39
2024/01/29 00:04:13;;;;;;;;;76.00;55.75;;;;;6.86;81.61;102241.78;4993770;28;45377;-38
2024/01/29 00:06:39;;;;;;;;;64.00;50.75;;;;;6.89;81.77;102260.13;4993688;28;45527;-38
2024/01/29 00:09:05;;;;;;;;;60.50;48.50;;;;;6.80;81.63;102247.41;4994028;28;45318;-39
2024/01/29 00:11:32;;;;;;;;;67.00;50.50;;;;;6.77;81.89;102238.78;4994203;28;45268;-40
2024/01/29 00:13:57;;;;;;;;;69.25;54.00;;;;;6.85;82.29;102255.09;4993848;28;46600;-39
2024/01/29 00:16:23;;;;;;;;;60.25;45.75;;;;;6.78;82.59;102244.00;4993563;28;45535;-39
2024/01/29 00:18:48;;;;;;;;;67.25;51.25;;;;;6.79;81.85;102250.16;4993882;27;45464;-40
2024/01/29 00:21:14;;;;;;;;;66.75;53.50;;;;;6.78;81.84;102254.56;4994040;28;45437;-39
2024/01/29 00:23:39;;;;;;;;;62.50;49.25;;;;;6.78;82.40;102259.00;4993490;28;45402;-38
2024/01/29 00:26:04;;;;;;;;;67.75;52.25;;;;;6.53;82.35;102219.84;4994725;27;45292;-38
2024/01/29 00:28:30;;;;;;;;;56.75;47.00;;;;;6.74;82.40;102266.25;4993722;28;45444;-39
2024/01/29 00:30:55;;;;;;;;;64.25;49.00;;;;;6.72;81.58;102258.41;4993538;28;45218;-39
2024/01/29 00:33:20;;;;;;;;;57.25;43.25;;;;;6.71;81.47;102247.94;4993157;28;47881;-38
2024/01/29 00:35:46;;;;;;;;;57.50;45.25;;;;;6.73;82.48;102262.75;4993230;28;45409;-39
2024/01/29 00:38:11;;;;;;;;;64.25;48.75;;;;;6.73;82.04;102260.13;4993400;28;45400;-39
2024/01/29 00:40:37;;;;;;;;;65.50;49.75;;;;;6.70;81.74;102257.66;4992902;28;45277;-40
2024/01/29 00:43:03;;;;;;;;;54.75;42.00;;;;;6.75;81.46;102266.19;4993271;28;46033;-41
2024/01/29 00:45:29;;;;;;;;;65.00;48.25;;;;;6.75;81.46;102267.97;4993269;28;45295;-38
2024/01/29 00:47:54;;;;;;;;;50.50;40.00;;;;;6.71;81.81;102269.09;4993124;28;45375;-42
2024/01/29 00:50:19;;;;;;;;;61.50;47.75;;;;;6.68;82.30;102259.53;4993233;28;45332;-38
2024/01/29 00:52:45;;;;;;;;;60.00;49.50;;;;;6.70;81.94;102251.50;4993039;28;45437;-39
2024/01/29 00:55:12;;;;;;;;;63.50;48.75;;;;;6.72;81.70;102262.84;4993107;28;45530;-39
2024/01/29 00:57:37;;;;;;;;;62.00;48.00;;;;;6.71;82.02;102256.72;4993240;28;45284;-40
2024/01/29 01:00:03;;;;;;;;;61.75;45.25;;;;;6.70;81.90;102268.25;4993214;28;45393;-39
2024/01/29 01:02:28;;;;;;;;;53.00;42.00;;;;;6.69;81.12;102269.16;4992873;28;46927;-38
2024/01/29 01:04:54;;;;;;;;;56.75;45.25;;;;;6.68;81.74;102275.38;4992739;28;45294;-38
2024/01/29 01:07:19;;;;;;;;;59.25;46.25;;;;;6.67;81.85;102263.09;4992963;28;45327;-38
2024/01/29 01:09:44;;;;;;;;;57.50;45.50;;;;;6.67;81.12;102272.84;4993514;28;45327;-37
2024/01/29 01:12:10;;;;;;;;;50.75;43.25;;;;;6.62;81.57;102259.88;4992908;28;47009;-37
2024/01/29 01:14:35;;;;;;;;;60.75;45.75;;;;;6.68;80.47;102271.88;4992949;28;45428;-39
2024/01/29 01:17:00;;;;;;;;;54.50;44.50;;;;;6.61;81.53;102249.34;4992938;28;45396;-38
2024/01/29 01:19:26;;;;;;;;;52.25;44.00;;;;;6.63;80.54;102255.44;4992944;28;45264;-37
2024/01/29 01:21:51;;;;;;;;;51.75;43.25;;;;;6.60;81.03;102255.59;4992742;28;45263;-39
2024/01/29 01:24:16;;;;;;;;;54.50;44.25;;;;;6.61;80.99;102263.44;4992547;28;45485;-37
2024/01/29 01:26:42;;;;;;;;;53.50;46.50;;;;;6.61;80.76;102257.28;4993096;28;45390;-39
2024/01/29 01:29:07;;;;;;;;;61.50;46.25;;;;;6.59;81.33;102260.03;4993035;28;45620;-39
2024/01/29 01:31:32;;;;;;;;;64.25;48.75;;;;;6.55;81.14;102253.19;4990974;28;48419;-39
2024/01/29 01:33:58;;;;;;;;;56.00;40.75;;;;;6.56;80.91;102251.41;4992634;28;45346;-38
2024/01/29 01:36:23;;;;;;;;;52.50;41.75;;;;;6.54;81.64;102266.50;4992457;28;45795;-38
2024/01/29 01:38:48;;;;;;;;;59.00;44.75;;;;;6.53;81.26;102264.78;4992618;28;45404;-38
2024/01/29 01:41:14;;;;;;;;;54.00;45.75;;;;;6.47;81.67;102261.53;4992159;28;45976;-39
2024/01/29 01:43:39;;;;;;;;;50.25;40.00;;;;;6.53;81.63;102275.34;4992173;28;45483;-39
2024/01/29 01:46:17;;;;;;;;;58.50;45.25;;;;;6.44;80.90;102263.50;4992259;28;45368;-38
2024/01/29 01:48:43;;;;;;;;;54.00;45.00;;;;;6.52;81.11;102285.09;4992617;28;45419;-39
2024/01/29 01:51:08;;;;;;;;;51.25;41.75;;;;;6.45;80.73;102270.50;4992054;28;46197;-39
2024/01/29 01:53:36;;;;;;;;;49.00;40.00;;;;;6.52;80.33;102279.78;4995072;28;45449;-39
2024/01/29 01:56:03;;;;;;;;;60.25;42.50;;;;;6.50;81.36;102279.03;4995433;28;45341;-38
2024/01/29 01:58:30;;;;;;;;;57.00;46.25;;;;;6.47;80.88;102273.91;4995703;28;45792;-38
2024/01/29 02:00:56;;;;;;;;;21.00;10.25;;;;;6.47;81.24;102279.19;4995015;28;46205;-39
2024/01/29 02:03:21;;;;;;;;;49.50;43.25;;;;;6.48;81.28;102280.91;4995196;28;45435;-39
2024/01/29 02:05:47;;;;;;;;;48.50;41.25;;;;;6.49;81.28;102280.84;4995305;28;45411;-38
2024/01/29 02:08:13;;;;;;;;;53.50;40.75;;;;;6.45;81.42;102278.44;4995232;28;45448;-40
2024/01/29 02:10:39;;;;;;;;;55.25;41.50;;;;;6.45;81.75;102276.66;4995018;28;46356;-39
2024/01/29 02:13:13;;;;;;;;;42.50;38.50;;;;;6.45;81.39;102278.44;4995142;28;45172;-37
2024/01/29 02:15:38;;;;;;;;;55.00;41.75;;;;;6.38;81.46;102267.34;4995254;28;45299;-40
2024/01/29 02:18:04;;;;;;;;;54.50;41.00;;;;;6.43;81.68;102277.66;4994924;28;45326;-38
2024/01/29 02:20:30;;;;;;;;;49.50;44.00;;;;;6.41;82.20;102279.53;4994918;28;46109;-38
2024/01/29 02:22:56;;;;;;;;;46.50;38.00;;;;;6.40;81.63;102286.59;4995055;28;45409;-39
2024/01/29 02:25:21;;;;;;;;;46.50;39.75;;;;;6.37;82.07;102283.28;4995000;28;45391;-39
2024/01/29 02:27:46;;;;;;;;;48.50;41.50;;;;;6.41;82.33;102287.47;4995176;28;45407;-37
2024/01/29 02:30:13;;;;;;;;;62.50;42.00;;;;;6.37;82.33;102292.06;4994807;28;46335;-39
2024/01/29 02:32:38;;;;;;;;;48.00;41.25;;;;;6.34;82.27;102291.38;4994749;28;45427;-38
2024/01/29 02:35:04;;;;;;;;;50.25;42.25;;;;;6.41;81.73;102298.03;4994775;28;45197;-38
2024/01/29 02:37:29;;;;;;;;;44.75;37.75;;;;;6.32;81.72;102278.25;4995314;28;45378;-38
2024/01/29 02:39:55;;;;;;;;;56.25;41.50;;;;;6.37;82.00;102289.41;4994680;28;46407;-39
2024/01/29 02:42:21;;;;;;;;;46.50;41.00;;;;;6.38;81.91;102287.63;4994626;28;45398;-38
2024/01/29 02:44:46;;;;;;;;;56.00;41.50;;;;;6.36;81.94;102276.25;4994845;28;45373;-39
2024/01/29 02:47:12;;;;;;;;;57.25;42.00;;;;;6.32;82.50;102274.72;4994853;28;45327;-38
2024/01/29 02:49:37;;;;;;;;;50.25;39.00;;;;;6.31;81.80;102275.66;4994464;28;47364;-40
2024/01/29 02:52:04;;;;;;;;;51.50;41.50;;;;;6.34;82.17;102279.00;4994893;28;45786;-39
2024/01/29 02:54:29;;;;;;;;;48.00;40.00;;;;;6.32;82.60;102274.72;4994963;28;45267;-39
2024/01/29 02:56:55;;;;;;;;;49.50;38.50;;;;;6.39;82.07;102289.31;4994615;28;45549;-39
2024/01/29 02:59:20;;;;;;;;;40.00;36.00;;;;;6.38;82.36;102296.41;4994079;28;45571;-39
2024/01/29 03:01:45;;;;;;;;;51.25;38.75;;;;;6.37;82.77;102291.22;4994398;28;45434;-39
2024/01/29 03:04:10;;;;;;;;;45.25;37.25;;;;;6.38;82.72;102282.34;4993966;28;45242;-39
2024/01/29 03:06:36;;;;;;;;;48.25;39.00;;;;;6.37;83.12;102281.50;4994868;28;45215;-39
2024/01/29 03:09:01;;;;;;;;;41.75;36.75;;;;;6.37;83.00;102278.84;4994481;28;47162;-39
2024/01/29 03:11:26;;;;;;;;;48.00;39.50;;;;;6.38;83.06;102277.06;4994563;28;45453;-38
2024/01/29 03:13:52;;;;;;;;;37.75;36.75;;;;;6.41;83.49;102277.75;4994560;28;45890;-39
2024/01/29 03:16:17;;;;;;;;;40.00;36.00;;;;;6.44;82.79;102276.72;4994826;28;45279;-40
2024/01/29 03:18:42;;;;;;;;;39.50;32.75;;;;;6.44;82.58;102276.72;4994292;28;46200;-40
2024/01/29 03:21:08;;;;;;;;;52.50;36.75;;;;;6.43;82.60;102280.28;4994508;28;45187;-40
2024/01/29 03:23:33;;;;;;;;;40.25;37.50;;;;;6.45;82.35;102294.31;4994152;28;45350;-38
2024/01/29 03:25:59;;;;;;;;;31.50;30.00;;;;;6.45;82.93;102291.66;4994808;28;45262;-39
2024/01/29 03:28:24;;;;;;;;;43.00;33.00;;;;;6.44;83.00;102287.28;4994157;28;46426;-39
2024/01/29 03:30:49;;;;;;;;;50.25;39.00;;;;;6.40;82.87;102281.31;4994431;28;45442;-40
2024/01/29 03:33:15;;;;;;;;;37.50;31.00;;;;;6.46;83.33;102296.00;4994249;28;45453;-40
2024/01/29 03:35:40;;;;;;;;;36.00;32.50;;;;;6.44;83.78;102287.28;4994564;28;45533;-38
2024/01/29 03:38:05;;;;;;;;;36.00;31.75;;;;;6.47;83.89;102292.41;4994172;28;46151;-39
2024/01/29 03:40:31;;;;;;;;;22.75;20.00;;;;;6.43;83.24;102285.59;4994075;28;45547;-39
2024/01/29 03:42:56;;;;;;;;;42.00;30.25;;;;;6.46;83.52;102283.63;5009542;28;45311;-36
2024/01/29 03:45:21;;;;;;;;;33.50;29.50;;;;;6.48;83.84;102281.75;4994210;28;45318;-39
2024/01/29 03:47:47;;;;;;;;;41.00;32.00;;;;;6.47;83.58;102276.56;4993966;28;46162;-40
2024/01/29 03:50:12;;;;;;;;;39.25;32.00;;;;;6.48;83.40;102270.31;4993948;28;45318;-38
2024/01/29 03:52:38;;;;;;;;;34.25;27.25;;;;;6.55;83.51;102284.94;4994463;28;45627;-39
2024/01/29 03:55:03;;;;;;;;;32.00;28.25;;;;;6.55;83.78;102279.63;4994355;28;45342;-39
2024/01/29 03:57:29;;;;;;;;;29.75;25.50;;;;;6.56;84.43;102283.13;4994117;28;47074;-40
2024/01/29 03:59:56;;;;;;;;;32.00;28.25;;;;;6.57;84.20;102277.75;4993635;28;45409;-39
2024/01/29 04:02:22;;;;;;;;;46.00;29.00;;;;;6.56;84.50;102280.50;4993804;28;45373;-40
2024/01/29 04:04:48;;;;;;;;;28.25;25.25;;;;;6.60;84.22;102280.25;4993997;28;45301;-40
2024/01/29 04:07:14;;;;;;;;;33.25;24.50;;;;;6.61;84.25;102283.72;4993708;28;46077;-40
2024/01/29 04:09:39;;;;;;;;;29.75;22.25;;;;;6.60;84.50;102280.25;4992394;28;45389;-39
2024/01/29 04:12:05;;;;;;;;;32.00;26.25;;;;;6.64;84.41;102283.56;4993794;28;45313;-40
2024/01/29 04:14:30;;;;;;;;;32.50;26.00;;;;;6.64;84.68;102284.41;4992789;28;45490;-40
2024/01/29 04:16:56;;;;;;;;;36.75;27.25;;;;;6.65;83.51;102279.97;4993594;28;46395;-40
2024/01/29 04:19:21;;;;;;;;;28.00;25.25;;;;;6.66;84.27;102281.72;4993420;28;45383;-39
2024/01/29 04:21:46;;;;;;;;;35.00;27.25;;;;;6.64;84.66;102281.78;4993602;28;45321;-40
2024/01/29 04:24:13;;;;;;;;;34.50;26.75;;;;;6.64;84.66;102281.78;4993749;28;45643;-39
2024/01/29 04:26:40;;;;;;;;;27.75;25.25;;;;;6.65;84.02;102279.97;4993224;28;47419;-39
2024/01/29 04:29:06;;;;;;;;;31.75;23.50;;;;;6.65;84.02;102288.78;4993200;28;45292;-39
2024/01/29 04:31:31;;;;;;;;;29.50;27.50;;;;;6.57;84.13;102268.97;5008135;28;45427;-39
2024/01/29 04:33:56;;;;;;;;;30.50;26.00;;;;;6.61;84.61;102279.28;4993481;28;45416;-39
2024/01/29 04:36:22;;;;;;;;;26.50;24.50;;;;;6.61;84.74;102286.38;4993125;28;45608;-41
2024/01/29 04:38:49;;;;;;;;;31.25;26.25;;;;;6.56;84.51;102277.84;4993472;28;45268;-40
2024/01/29 04:41:21;;;;;;;;;30.25;26.75;;;;;6.56;84.03;102281.34;4993410;28;45273;-40
2024/01/29 04:43:47;;;;;;;;;30.50;24.50;;;;;6.57;83.91;102280.41;4993290;28;45288;-38
2024/01/29 04:46:12;;;;;;;;;32.50;28.00;;;;;6.54;84.34;102277.94;4992749;28;46280;-40
2024/01/29 04:48:39;;;;;;;;;30.25;28.25;;;;;6.51;84.90;102267.53;4992842;28;45320;-40
2024/01/29 04:51:06;;;;;;;;;16.25;13.00;;;;;6.43;84.91;102269.72;4992960;28;45369;-38
2024/01/29 04:53:31;;;;;;;;;34.00;29.75;;;;;6.49;85.31;102291.41;4993219;28;45240;-40
2024/01/29 04:55:56;;;;;;;;;30.50;24.75;;;;;6.51;84.83;102288.66;4992580;28;46871;-39
2024/01/29 04:58:21;;;;;;;;;34.75;23.00;;;;;6.55;84.66;102294.66;4992786;28;45327;-39
2024/01/29 05:00:47;;;;;;;;;25.75;24.25;;;;;6.30;84.22;102247.53;4992932;28;45323;-39
2024/01/29 05:03:12;;;;;;;;;33.25;25.00;;;;;6.59;84.38;102298.84;4992902;28;45462;-40
2024/01/29 05:05:37;;;;;;;;;28.75;24.25;;;;;6.58;84.24;102294.50;4992505;28;46511;-40
2024/01/29 05:08:03;;;;;;;;;36.25;25.00;;;;;6.59;84.58;102298.84;4992107;28;51253;-39
2024/01/29 05:10:28;;;;;;;;;35.75;28.50;;;;;6.54;84.48;102287.66;4992383;28;45408;-39
2024/01/29 05:12:54;;;;;;;;;26.00;21.75;;;;;6.59;84.32;102294.41;4992560;28;45389;-39
2024/01/29 05:15:19;;;;;;;;;33.00;24.75;;;;;6.59;84.66;102299.69;4992449;28;45379;-41
2024/01/29 05:17:45;;;;;;;;;37.25;26.50;;;;;6.62;84.87;102301.31;4992831;28;45370;-40
2024/01/29 05:20:11;;;;;;;;;31.75;27.25;;;;;6.64;84.75;102300.28;4992690;28;45334;-39
2024/01/29 05:22:36;;;;;;;;;36.00;29.75;;;;;6.65;84.31;102301.13;4993162;28;45310;-40
2024/01/29 05:25:02;;;;;;;;;31.50;24.75;;;;;6.64;83.49;102296.78;4992408;28;45980;-40
2024/01/29 05:27:27;;;;;;;;;35.50;28.75;;;;;6.63;84.57;102295.94;4995360;28;45446;-40
2024/01/29 05:29:52;;;;;;;;;34.25;28.00;;;;;6.64;84.66;102295.00;4995788;28;45286;-39
2024/01/29 05:32:18;;;;;;;;;34.25;27.00;;;;;6.63;83.75;102295.94;4995904;28;45330;-39
2024/01/29 05:34:43;;;;;;;;;33.25;25.00;;;;;6.61;84.51;102294.31;4995433;28;45339;-39
2024/01/29 05:37:08;;;;;;;;;43.75;30.50;;;;;6.62;83.82;102296.03;4995310;28;45413;-40
2024/01/29 05:39:34;;;;;;;;;37.00;27.25;;;;;6.61;84.76;102303.09;4995309;28;45348;-39
2024/01/29 05:41:59;;;;;;;;;31.75;28.25;;;;;6.59;83.89;102302.34;4995738;28;46143;-38
2024/01/29 05:44:24;;;;;;;;;30.00;27.00;;;;;6.64;83.57;102305.56;4995367;28;47627;-39
2024/01/29 05:46:50;;;;;;;;;37.50;28.50;;;;;6.63;84.12;102303.88;4995378;28;45353;-39
2024/01/29 05:49:15;;;;;;;;;28.25;25.75;;;;;6.61;83.89;102308.38;4993941;28;45314;-39
2024/01/29 05:51:40;;;;;;;;;31.50;27.75;;;;;6.62;83.76;102301.31;4995786;28;45417;-39
2024/01/29 05:54:06;;;;;;;;;31.00;25.75;;;;;6.64;84.04;102315.31;4995150;28;46561;-39
2024/01/29 05:56:31;;;;;;;;;31.00;28.00;;;;;6.64;84.10;102316.16;4995367;28;45441;-39
2024/01/29 05:58:57;;;;;;;;;36.25;30.00;;;;;6.64;84.01;102320.59;4995334;28;45352;-40
2024/01/29 06:01:22;;;;;;;;;28.00;25.50;;;;;6.57;84.43;102304.19;4995512;28;45484;-39
2024/01/29 06:03:48;;;;;;;;;32.00;28.75;;;;;6.63;84.60;102319.75;4994755;28;45368;-39
2024/01/29 06:06:13;;;;;;;;;35.00;28.25;;;;;6.60;84.12;102311.97;4994897;28;45346;-40
2024/01/29 06:08:38;;;;;;;;;28.50;25.00;;;;;6.63;84.37;102327.69;4995309;28;45830;-37
2024/01/29 06:11:04;;;;;;;;;34.75;25.25;;;;;6.63;84.29;102326.81;4995412;28;45253;-40
2024/01/29 06:13:29;;;;;;;;;22.50;15.75;;;;;6.63;84.20;102321.53;4994966;28;46512;-39
2024/01/29 06:15:54;;;;;;;;;39.75;31.00;;;;;6.60;83.59;102333.13;4994889;28;45315;-39
2024/01/29 06:18:20;;;;;;;;;30.75;24.50;;;;;6.59;85.19;102339.34;4995140;28;45734;-39
2024/01/29 06:20:46;;;;;;;;;23.00;18.00;;;;;6.60;85.21;102335.75;4994947;28;45418;-40
2024/01/29 06:23:12;;;;;;;;;29.75;26.25;;;;;6.57;84.11;102335.91;4994769;28;46067;-40
2024/01/29 06:25:37;;;;;;;;;31.00;29.25;;;;;6.57;84.95;102337.72;4994758;28;45293;-39
2024/01/29 06:28:03;;;;;;;;;33.75;29.25;;;;;6.58;84.62;102342.09;4995086;28;45312;-36
2024/01/29 06:30:28;;;;;;;;;33.75;28.75;;;;;6.59;85.00;102349.94;4994567;28;45532;-39
2024/01/29 06:32:54;;;;;;;;;42.00;30.25;;;;;6.53;84.10;102328.22;4994768;28;46175;-39
2024/01/29 06:35:19;;;;;;;;;34.25;29.75;;;;;6.55;85.39;102352.81;4994638;28;45544;-39
2024/01/29 06:37:44;;;;;;;;;45.50;34.00;;;;;6.45;85.00;102334.81;4994017;28;45332;-38
2024/01/29 06:40:10;;;;;;;;;40.25;32.00;;;;;6.53;84.23;102350.28;4995134;28;45502;-40
2024/01/29 06:42:35;;;;;;;;;39.75;35.75;;;;;6.53;84.74;102346.75;4994531;28;46546;-40
2024/01/29 06:45:01;;;;;;;;;41.75;37.50;;;;;6.48;84.66;102352.28;4994709;28;45405;-38
2024/01/29 06:47:26;;;;;;;;;35.75;34.25;;;;;6.40;85.56;102347.38;4994728;28;45372;-39
2024/01/29 06:49:52;;;;;;;;;48.00;37.25;;;;;6.50;85.61;102366.28;4994474;28;45413;-41
2024/01/29 06:52:17;;;;;;;;;36.50;27.00;;;;;6.50;84.56;102366.28;4994846;28;45415;-40
2024/01/29 06:54:42;;;;;;;;;40.25;36.25;;;;;6.45;85.62;102366.53;4994570;28;45242;-40
2024/01/29 06:57:08;;;;;;;;;45.00;37.25;;;;;6.41;86.00;102364.13;4993373;28;45509;-40
2024/01/29 06:59:36;;;;;;;;;36.50;32.00;;;;;6.37;85.68;102363.44;4995057;28;45334;-39
2024/01/29 07:02:04;;;;;;;;;53.50;35.50;;;;;6.44;86.14;102371.88;4994660;28;46451;-40
2024/01/29 07:04:29;;;;;;;;;38.75;34.75;;;;;6.38;85.61;102370.41;4994424;28;45192;-38
2024/01/29 07:06:55;;;;;;;;;44.00;35.00;;;;;6.35;85.68;102360.00;4994539;28;45294;-39
2024/01/29 07:09:20;;;;;;;;;33.00;28.50;;;;;6.43;86.26;102372.81;4994778;28;45390;-40
2024/01/29 07:11:45;;;;;;;;;29.00;29.00;;;;;6.46;86.42;102376.16;4994677;28;45769;-38
2024/01/29 07:14:11;;;;;;;;;34.75;27.75;;;;;6.47;86.12;102371.72;4994803;28;45433;-39
2024/01/29 07:16:37;;;;;;;;;38.50;28.75;;;;;6.45;86.64;102377.09;4994889;28;45357;-40
2024/01/29 07:19:02;;;;;;;;;47.00;38.00;;;;;6.51;86.21;102381.22;4994724;28;45371;-40
2024/01/29 07:21:27;;;;;;;;;44.00;33.00;;;;;6.51;86.06;102378.56;4994063;28;46343;-38
2024/01/29 07:23:53;;;;;;;;;43.75;32.75;;;;;6.40;86.19;102363.25;4994301;28;45385;-40
2024/01/29 07:26:18;;;;;;;;;37.50;32.25;;;;;6.51;86.21;102386.50;4994333;28;45565;-39
2024/01/29 07:28:43;;;;;;;;;44.00;37.50;;;;;6.55;85.76;102398.63;4994512;28;45440;-40
2024/01/29 07:31:09;;;;;;;;;39.00;32.75;;;;;6.56;86.08;102395.03;4993853;28;46272;-40
2024/01/29 07:33:34;;;;;;;;;34.75;28.75;;;;;6.58;86.35;102402.91;4994411;28;45425;-40
2024/01/29 07:36:01;;;;;;;;;51.75;32.50;;;;;6.58;86.07;102401.09;4994222;28;45385;-38
2024/01/29 07:38:26;;;;;;;;;35.75;30.50;;;;;6.60;85.94;102407.16;4994568;28;45402;-39
2024/01/29 07:40:51;;;;;;;;;12.75;5.25;;;;;6.60;86.25;102404.50;4993990;28;49974;-39
2024/01/29 07:43:17;;;;;;;;;35.25;29.75;;;;;6.58;86.10;102387.03;4993910;28;46014;-40
2024/01/29 07:45:43;;;;;;;;;34.00;28.25;;;;;6.69;86.01;102414.59;4994159;28;45298;-40
2024/01/29 07:48:09;;;;;;;;;33.25;27.00;;;;;6.68;86.33;102417.34;4994532;28;45541;-38
2024/01/29 07:50:35;;;;;;;;;34.00;28.50;;;;;6.73;85.99;102402.06;4993632;28;46098;-40
2024/01/29 07:53:00;;;;;;;;;31.50;27.00;;;;;6.83;86.62;102411.25;4994090;28;45405;-39
2024/01/29 07:55:26;;;;;;;;;34.00;28.25;;;;;6.89;85.80;102410.06;4992992;28;45388;-38
2024/01/29 07:57:52;;;;;;;;;37.25;32.75;;;;;6.98;85.84;102417.50;4994094;28;45426;-38
2024/01/29 08:00:18;;;;;;;;;29.50;24.25;;;;;7.05;85.70;102413.59;4993754;28;46353;-39
2024/01/29 08:02:43;;;;;;;;;27.00;23.25;;;;;7.09;85.07;102407.19;4993526;28;45358;-40
2024/01/29 08:05:09;;;;;;;;;26.75;26.00;;;;;7.21;84.01;102413.63;4993567;28;45358;-39
2024/01/29 08:07:34;;;;;;;;;25.00;23.00;;;;;7.27;84.79;102412.41;4994052;28;45355;-39
2024/01/29 08:10:01;;;;;;;;;24.50;22.75;;;;;7.31;84.51;102419.25;4993626;28;45716;-39
2024/01/29 08:12:27;;;;;;;;;38.50;27.75;;;;;7.39;84.09;102417.88;4993658;28;45343;-40
2024/01/29 08:14:52;;;;;;;;;27.00;25.50;;;;;7.45;83.91;102414.88;4993622;28;45396;-39
2024/01/29 08:17:17;;;;;;;;;25.75;21.50;;;;;7.51;82.98;102411.06;4993924;28;45521;-39
2024/01/29 08:19:43;;;;;;;;;28.25;23.75;;;;;7.49;83.23;102403.19;4993517;28;46211;-40
2024/01/29 08:22:08;;;;;;;;;29.25;24.75;;;;;7.58;83.38;102409.75;4993355;28;45382;-40
2024/01/29 08:24:34;;;;;;;;;26.25;25.00;;;;;7.59;83.57;102408.84;4993749;28;45323;-39
2024/01/29 08:26:59;;;;;;;;;29.50;24.50;;;;;7.55;82.78;102391.41;4993865;28;45219;-39
2024/01/29 08:29:25;;;;;;;;;35.00;24.75;;;;;7.67;82.14;102405.75;4993441;28;45370;-39
2024/01/29 08:31:51;;;;;;;;;34.00;27.00;;;;;7.75;82.90;102409.69;4993291;28;45421;-38
2024/01/29 08:34:17;;;;;;;;;35.00;26.75;;;;;7.80;81.94;102411.22;4993389;28;45345;-39
2024/01/29 08:36:42;;;;;;;;;28.50;25.00;;;;;7.60;81.50;102369.97;4993407;28;45362;-39
2024/01/29 08:39:07;;;;;;;;;32.75;27.75;;;;;7.86;81.40;102406.41;4993271;28;46325;-40
2024/01/29 08:41:33;;;;;;;;;31.00;24.50;;;;;7.98;81.13;102416.28;4993104;28;45315;-40
2024/01/29 08:43:58;;;;;;;;;25.00;25.00;;;;;8.05;81.45;102413.28;4993346;28;45777;-39
2024/01/29 08:46:23;;;;;;;;;32.50;29.50;;;;;8.13;80.45;102421.63;4993320;28;45468;-40
2024/01/29 08:48:49;;;;;;;;;28.75;24.50;;;;;8.21;80.83;102422.88;4992923;28;46141;-39
2024/01/29 08:51:14;;;;;;;;;28.00;22.00;;;;;8.24;80.22;102405.97;5077811;27;46098;-39
2024/01/29 08:53:39;;;;;;;;;26.50;26.00;;;;;8.41;80.18;102420.91;4993444;28;45709;-39
2024/01/29 08:56:07;;;;;;;;;34.00;27.25;;;;;8.52;79.20;102423.78;4993149;28;45404;-39
2024/01/29 08:58:33;;;;;;;;;28.00;24.25;;;;;8.65;79.18;102424.72;4993101;28;45993;-39
2024/01/29 09:00:59;;;;;;;;;29.00;24.50;;;;;8.79;79.08;102423.03;4994985;28;45330;-39
2024/01/29 09:03:24;;;;;;;;;34.50;28.00;;;;;8.90;78.43;102428.53;4999673;28;45389;-38
2024/01/29 09:05:50;;;;;;;;;26.25;23.50;;;;;8.98;77.81;102418.31;4999371;28;45376;-39
2024/01/29 09:08:16;;;;;;;;;28.50;25.75;;;;;9.09;77.70;102418.47;4999421;28;46059;-40
2024/01/29 09:10:41;;;;;;;;;27.25;25.75;;;;;9.10;76.91;102411.34;4999332;28;45323;-40
2024/01/29 09:13:07;;;;;;;;;33.00;26.75;;;;;9.05;76.90;102406.34;4999342;28;45355;-40
2024/01/29 09:15:32;;;;;;;;;28.50;25.00;;;;;9.23;76.83;102418.47;4999539;28;45453;-39
2024/01/29 09:17:57;;;;;;;;;32.00;27.00;;;;;9.19;76.37;102394.88;4999168;28;45436;-40
2024/01/29 09:20:23;;;;;;;;;33.25;25.75;;;;;9.37;76.45;102417.59;4999114;28;45433;-40
2024/01/29 09:22:48;;;;;;;;;32.25;25.50;;;;;9.44;75.90;102418.91;4999096;28;45410;-39
2024/01/29 09:25:14;;;;;;;;;26.00;25.75;;;;;9.53;75.83;102413.97;5014644;28;45312;-39
2024/01/29 09:27:39;;;;;;;;;32.50;24.75;;;;;9.64;75.60;102420.25;4999128;28;45460;-39
2024/01/29 09:30:05;;;;;;;;;33.75;27.50;;;;;9.72;75.63;102412.66;4998906;28;45505;-38
2024/01/29 09:32:31;;;;;;;;;35.75;25.50;;;;;9.85;75.12;102417.16;4999143;28;45403;-37
2024/01/29 09:34:56;;;;;;;;;32.50;29.25;;;;;10.10;74.44;102422.56;4999120;28;45439;-38
2024/01/29 09:37:22;;;;;;;;;39.75;27.75;;;;;10.27;73.75;102420.59;4998690;28;45248;-38
2024/01/29 09:39:47;;;;;;;;;34.25;27.50;;;;;10.23;73.00;102407.47;5013339;28;45450;-40
2024/01/29 09:42:20;;;;;;;;;34.50;28.00;;;;;10.29;73.38;102422.22;5000106;28;45249;-38
2024/01/29 09:44:49;;;;;;;;;34.00;29.75;;;;;10.31;73.17;102430.06;4998941;28;45377;-39
2024/01/29 09:47:15;;;;;;;;;31.75;29.25;;;;;10.30;73.36;102433.69;4998544;28;46146;-37
2024/01/29 09:49:42;;;;;;;;;33.75;31.25;;;;;10.33;73.55;102433.50;4998270;28;45332;-39
2024/01/29 09:52:12;;;;;;;;;40.25;32.25;;;;;10.35;72.71;102431.56;4998599;28;45406;-38
2024/01/29 09:54:40;;;;;;;;;32.00;30.75;;;;;10.31;72.95;102419.44;4998686;28;45435;-37
2024/01/29 09:57:05;;;;;;;;;33.25;31.25;;;;;10.47;72.89;102433.41;4998124;28;46244;-39
2024/01/29 09:59:31;;;;;;;;;36.25;33.00;;;;;10.55;72.66;102436.41;4998473;28;45342;-38
2024/01/29 10:02:00;;;;;;;;;34.50;26.75;;;;;10.69;71.97;102436.28;4998369;28;45448;-38
2024/01/29 10:04:25;;;;;;;;;45.00;30.00;;;;;10.83;71.65;102437.13;4998575;28;45697;-37
2024/01/29 10:06:50;;;;;;;;;29.25;24.00;;;;;11.02;71.38;102436.72;4997788;28;47087;-38
2024/01/29 10:09:16;;;;;;;;;38.00;30.00;;;;;11.23;70.41;102440.50;4998251;28;45342;-38
2024/01/29 10:11:43;;;;;;;;;40.75;32.75;;;;;11.46;69.84;102442.41;4997981;28;45422;-38
2024/01/29 10:14:08;;;;;;;;;34.75;31.50;;;;;11.61;69.41;102434.22;4994117;28;45460;-37
2024/01/29 10:16:33;;;;;;;;;31.50;24.50;;;;;11.74;68.87;102435.03;4994686;28;46409;-39
2024/01/29 10:19:02;;;;;;;;;28.75;25.00;;;;;11.79;68.36;102440.03;4994620;28;45387;-39
2024/01/29 10:21:32;;;;;;;;;31.75;24.75;;;;;11.93;68.20;102431.91;4994917;28;45326;-39
2024/01/29 10:23:58;;;;;;;;;17.33;16.67;;;;;12.31;67.28;102445.03;4995004;28;45241;-39
2024/01/29 10:26:25;;;;;;;;;30.67;22.00;;;;;12.81;65.34;102437.63;4994283;28;46042;-39
2024/01/29 10:29:01;;;;;;;;;39.50;31.75;;;;;13.20;64.48;102435.44;4994694;28;45316;-39
2024/01/29 10:31:26;;;;;;;;;28.67;23.00;;;;;13.76;62.71;102429.16;4994754;28;45372;-39
2024/01/29 10:33:52;;;;;;;;;40.00;31.00;;;;;14.39;61.94;102420.22;4993404;28;45453;-39
2024/01/29 10:36:17;;;;;;;;;26.33;25.00;;;;;15.12;60.97;102421.06;4994515;28;47000;-39
2024/01/29 10:38:46;;;;;;;;;28.00;27.00;;;;;15.82;59.97;102421.13;4994410;28;45288;-38
2024/01/29 10:41:17;;;;;;;;;30.00;24.00;;;;;16.27;56.88;102409.81;4994571;28;45425;-39
2024/01/29 10:43:47;;;;;;;;;41.00;31.00;;;;;16.47;54.90;102406.06;4994702;28;45310;-38
2024/01/29 10:46:22;;;;;;;;;24.67;24.33;;;;;16.85;53.81;102417.75;4994156;28;45399;-39
2024/01/29 10:48:49;;;;;;;;;28.33;25.67;;;;;17.04;53.72;102406.06;4994148;28;45210;-39
2024/01/29 10:51:16;;;;;;;;;34.67;27.00;;;;;16.70;52.65;102407.44;4994005;28;45320;-39
2024/01/29 10:53:43;;;;;;;;;29.67;26.33;;;;;16.10;54.51;102412.22;4994311;28;45526;-40
2024/01/29 10:56:09;;;;;;;;;29.67;29.33;;;;;15.63;56.06;102404.00;4993993;28;46151;-39
2024/01/29 10:58:36;;;;;;;;;22.33;21.33;;;;;15.39;55.45;102395.47;4994192;28;45373;-39
2024/01/29 11:01:03;;;;;;;;;32.67;27.00;;;;;15.51;56.34;102412.31;4994444;28;45368;-38
2024/01/29 11:03:29;;;;;;;;;31.67;26.67;;;;;15.68;56.21;102400.91;4994611;28;45416;-39
2024/01/29 11:06:24;;;;;;;;;27.67;24.33;;;;;15.87;56.15;102398.22;4993902;28;47093;-40
2024/01/29 11:08:55;;;;;;;;;38.00;27.00;;;;;15.95;56.08;102392.16;4993851;28;45349;-39
2024/01/29 11:11:23;;;;;;;;;26.00;24.00;;;;;16.18;54.42;102398.06;4994096;28;45327;-39